Winder, GA

3:34 PM EDT on August 30, 2014 (GMT -0400)
Gilmer Memorial | Change Station
CLOSE
Current Station
Airport
Location: Gainesville,
Elevation: 1276 ft
Nearby Weather Stations

Elev 1276 ft 34.27 °N, 83.83 °W | Updated 41 minutes ago

Overcast
Overcast
88 °F
Feels Like 92 °F
N
9
Wind Variable Wind from SE

Today
High -- | Low -- °F
--% Chance of Precip.
Yesterday
High -- | Low -- °F
Precip. -- in
7:07 AM 8:03 PM
Waxing Crescent, 24% visible
Pressure 30.11 in
Visibility 10.0 miles
Clouds Scattered Clouds 4000 ft
Overcast 9500 ft
Heat Index 92 °F
Dew Point 69 °F
Humidity 53%
Rainfall 0.00 in
Snow Depth Not available.
UV 3 out of 12
Pollen 8.70 out of 12
Air Quality Not available.
Flu Activity Not available.
METAR KGVL 301853Z AUTO 14008KT 10SM SCT040 OVC095 31/21 A3016 RMK AO2 SLP195 T03110206

More Conditions Fewer Conditions

Pressure 30.11 in
Visibility 10.0 miles
Clouds Scattered Clouds 4000 ft
Overcast 9500 ft
Heat Index 92 °F
Dew Point 69 °F
Humidity 53%
Rainfall 0.00 in
Snow Depth Not available.
UV 3 out of 12
Pollen 8.70 out of 12
Air Quality Not available.
Flu Activity Not available.
METAR KGVL 301853Z AUTO 14008KT 10SM SCT040 OVC095 31/21 A3016 RMK AO2 SLP195 T03110206

More Conditions Fewer Conditions

10-Day Weather Forecast

Almanac

Astronomy

Aug. 30, 2014 Rise Set
Actual Time 7:07 AM EDT 8:03 PM EDT
Civil Twilight 6:41 AM EDT 8:28 PM EDT
Nautical Twilight 6:11 AM EDT 8:59 PM EDT
Astronomical Twilight 5:39 AM EDT 9:30 PM EDT
Moon 11:39 AM EDT 10:52 PM EDT
Length of Visible Light 13h 47m
Length of Day
12h 56m
Tomorrow will be 2m 0s shorter.
Waxing Crescent, 24% of the Moon is Illuminated
Today
Waxing Crescent
Sep 2
First Quarter
Sep 8
Full
Sep 15
Last Quarter
Sep 24
New

Today's Extremes

State Highs State Lows

Community

WunderPhotos

Upload Photos

1,748,614 photos uploaded!

WunderBlogs® & News

Nearby

Air Quality

  Air Quality AQ Index Pollutant
Yesterday Good
PM10
Saturday Moderate
PM2.5
Saturday Good
OZONE
Sunday Moderate
OZONE
Sunday Moderate
PM2.5

Snow Depth

Station Depth Elevation
No new snow has been reported.

Earthquake Activity

City Distance Mag. Time & Date
No recent earthquake activity has been reported nearby.
Minimum magnitude displayed is 2.5.

Coastal Water Temperatures

Place Temperature
No Stations Reporting

Nearby Weather Stations